Time;durP1;ratioP1;P1;durP2;ratioP2;P2;SDS_P1;SDS_P2;PMS_P1;PMS_P2;Temp;Humidity;BMP_temperature;BMP_pressure;BME280_temperature;BME280_humidity;BME280_pressure;Samples;Min_cycle;Max_cycle;Signal;HPM_P1;HPM_P2
2023/11/11 00:01:57;;;;;;;;;;;9.60;64.40;;;5.25;100.00;94255.19;5006694;28;20039;-52
2023/11/11 00:04:24;;;;;;;;;;;9.60;64.30;;;5.22;100.00;94251.22;5012425;28;19913;-53
2023/11/11 00:06:51;;;;;;;;;;;9.60;64.60;;;5.22;100.00;94256.50;5009468;28;19914;-50
2023/11/11 00:09:18;;;;;;;;;;;9.50;64.50;;;5.14;100.00;94254.38;5012212;28;19955;-53
2023/11/11 00:11:45;;;;;;;;;;;9.50;65.00;;;5.15;100.00;94257.81;5013808;28;19920;-50
2023/11/11 00:14:13;;;;;;;;;;;9.50;65.00;;;5.13;100.00;94258.06;5009459;28;19909;-49
2023/11/11 00:16:39;;;;;;;;;;;9.50;65.30;;;5.14;100.00;94264.13;5013821;28;19908;-49
2023/11/11 00:19:06;;;;;;;;;;;9.50;65.30;;;5.14;100.00;94259.66;5004608;28;19917;-51
2023/11/11 00:21:37;;;;;;;;;;;9.50;65.30;;;5.12;100.00;94267.06;5007544;28;19909;-53
2023/11/11 00:24:05;;;;;;;;;;;9.50;65.40;;;5.10;100.00;94259.38;5013620;28;20355;-50
2023/11/11 00:26:31;;;;;;;;;;;9.50;65.60;;;5.09;100.00;94270.22;5008398;28;19909;-52
2023/11/11 00:28:57;;;;;;;;;;;9.50;65.80;;;5.08;100.00;94268.63;5013539;28;19909;-48
2023/11/11 00:31:23;;;;;;;;;;;9.50;66.00;;;5.09;100.00;94284.19;5009081;28;19970;-48
2023/11/11 00:33:49;;;;;;;;;;;9.50;66.10;;;5.06;100.00;94276.00;5013224;28;19989;-50
2023/11/11 00:36:16;;;;;;;;;;;9.50;66.40;;;5.06;100.00;94283.94;5010884;28;20319;-50
2023/11/11 00:38:42;;;;;;;;;;;9.40;66.60;;;5.05;100.00;94283.13;5010807;28;19909;-48
2023/11/11 00:41:09;;;;;;;;;;;9.40;66.50;;;5.07;100.00;94285.50;5013354;28;19962;-48
2023/11/11 00:43:34;;;;;;;;;;;9.50;66.50;;;5.05;100.00;94288.41;5009203;28;19948;-47
2023/11/11 00:46:00;;;;;;;;;;;9.40;66.50;;;5.06;100.00;94276.78;5013159;28;19967;-48
2023/11/11 00:48:26;;;;;;;;;;;9.40;66.40;;;4.98;100.00;94274.69;5013200;28;20004;-48
2023/11/11 00:50:52;;;;;;;;;;;9.40;66.60;;;5.00;100.00;94295.53;5009152;28;19913;-48
2023/11/11 00:53:18;;;;;;;;;;;9.40;66.90;;;5.01;100.00;94300.53;5012924;28;19999;-50
2023/11/11 00:55:44;;;;;;;;;;;9.40;67.00;;;5.00;100.00;94290.25;5008767;28;20003;-48
2023/11/11 00:58:11;;;;;;;;;;;9.40;67.00;;;5.02;100.00;94299.50;5012927;28;19909;-54
2023/11/11 01:00:40;;;;;;;;;;;9.40;67.00;;;5.00;100.00;94308.72;5011891;28;19952;-50
2023/11/11 01:03:06;;;;;;;;;;;9.40;67.20;;;5.04;100.00;94317.69;5006835;28;19944;-49
2023/11/11 01:05:32;;;;;;;;;;;9.40;67.20;;;5.00;100.00;94319.28;5012953;28;20268;-48
2023/11/11 01:07:58;;;;;;;;;;;9.40;67.20;;;4.98;100.00;94321.38;5009050;28;19909;-48
2023/11/11 01:10:24;;;;;;;;;;;9.40;67.20;;;4.97;100.00;94330.34;5012455;28;19924;-47
2023/11/11 01:12:51;;;;;;;;;;;9.40;67.40;;;4.96;100.00;94337.47;5008158;28;19913;-47
2023/11/11 01:15:18;;;;;;;;;;;9.40;67.40;;;4.93;100.00;94329.28;5012632;28;19909;-47
2023/11/11 01:17:43;;;;;;;;;;;9.40;67.70;;;4.95;100.00;94346.47;5012700;28;19917;-47
2023/11/11 01:20:12;;;;;;;;;;;9.40;67.60;;;4.92;100.00;94344.34;5007784;28;19909;-47
2023/11/11 01:22:38;;;;;;;;;;;9.40;67.60;;;4.90;100.00;94354.34;5012586;28;19909;-47
2023/11/11 01:25:07;;;;;;;;;;;9.40;67.90;;;4.91;100.00;94344.59;5007310;28;20007;-47
2023/11/11 01:27:35;;;;;;;;;;;9.40;67.90;;;4.87;100.00;94350.38;5012642;28;19945;-48
2023/11/11 01:30:02;;;;;;;;;;;9.30;67.90;;;4.87;100.00;94355.66;5012425;28;19943;-48
2023/11/11 01:32:28;;;;;;;;;;;9.30;68.10;;;4.91;100.00;94365.69;5009901;28;19917;-48
2023/11/11 01:34:53;;;;;;;;;;;9.30;68.00;;;4.90;100.00;94364.91;5012517;28;19916;-47
2023/11/11 01:37:20;;;;;;;;;;;9.30;68.00;;;4.88;100.00;94369.63;5001814;28;19920;-47
2023/11/11 01:39:45;;;;;;;;;;;9.30;68.00;;;4.82;100.00;94371.47;5012578;28;19909;-50
2023/11/11 01:42:12;;;;;;;;;;;9.30;68.10;;;4.81;100.00;94377.00;5012662;28;19954;-48
2023/11/11 01:44:38;;;;;;;;;;;9.30;68.00;;;4.76;100.00;94380.41;4987173;28;19915;-49
2023/11/11 01:47:06;;;;;;;;;;;9.30;67.90;;;4.73;100.00;94382.75;4994709;28;19909;-50
2023/11/11 01:49:36;;;;;;;;;;;9.20;67.80;;;4.69;100.00;94363.22;5008169;28;20008;-47
2023/11/11 01:52:06;;;;;;;;;;;9.20;67.90;;;4.69;100.00;94386.97;5011861;28;19913;-51
2023/11/11 01:54:34;;;;;;;;;;;9.20;68.00;;;4.67;100.00;94373.22;4993556;28;19990;-52
2023/11/11 01:57:05;;;;;;;;;;;9.20;68.20;;;4.64;100.00;94383.25;5007004;28;19909;-51
2023/11/11 01:59:35;;;;;;;;;;;9.20;68.40;;;4.64;100.00;94387.75;5012153;28;19916;-46
2023/11/11 02:02:01;;;;;;;;;;;9.20;69.20;;;4.62;100.00;94393.25;4972712;28;19912;-48
2023/11/11 02:04:28;;;;;;;;;;;9.10;69.30;;;4.65;100.00;94394.59;5012003;28;20346;-49
2023/11/11 02:06:55;;;;;;;;;;;9.10;68.70;;;4.68;100.00;94395.94;5009010;28;19944;-51
2023/11/11 02:09:24;;;;;;;;;;;9.20;68.70;;;4.60;100.00;94407.75;5011217;28;19915;-52
2023/11/11 02:11:56;;;;;;;;;;;9.10;68.80;;;4.53;100.00;94400.06;5011682;28;20008;-51
2023/11/11 02:14:23;;;;;;;;;;;9.10;68.90;;;4.61;100.00;94404.88;4986414;28;19913;-51
2023/11/11 02:16:49;;;;;;;;;;;9.10;68.90;;;4.56;100.00;94402.19;5011774;28;19909;-48
2023/11/11 02:19:15;;;;;;;;;;;9.10;68.90;;;4.51;100.00;94411.91;5008023;28;20309;-49
2023/11/11 02:21:42;;;;;;;;;;;9.00;69.00;;;4.49;100.00;94414.03;5011822;28;19952;-51
2023/11/11 02:24:10;;;;;;;;;;;9.10;69.20;;;4.43;100.00;94426.38;5011816;28;20286;-52
2023/11/11 02:26:36;;;;;;;;;;;9.00;69.20;;;4.39;100.00;94418.19;5007483;28;19909;-51
2023/11/11 02:29:02;;;;;;;;;;;9.00;69.30;;;4.41;100.00;94436.38;5011692;28;20022;-51
2023/11/11 02:31:28;;;;;;;;;;;9.00;69.30;;;4.43;100.00;94441.41;5006909;28;19931;-51
2023/11/11 02:33:54;;;;;;;;;;;9.00;69.20;;;4.42;100.00;94443.28;5014826;23;20386;-48
2023/11/11 02:36:20;;;;;;;;;;;8.90;69.10;;;4.36;100.00;94442.44;4991026;28;19921;-51
2023/11/11 02:38:45;;;;;;;;;;;8.90;69.10;;;4.35;100.00;94440.03;4990543;28;20367;-47
2023/11/11 02:41:12;;;;;;;;;;;8.90;69.10;;;4.35;100.00;94448.72;4990819;28;19909;-50
2023/11/11 02:43:38;;;;;;;;;;;8.90;69.20;;;4.33;100.00;94442.16;4972682;28;19921;-52
2023/11/11 02:46:04;;;;;;;;;;;8.90;69.20;;;4.27;100.00;94451.06;4960724;28;20392;-49
2023/11/11 02:48:31;;;;;;;;;;;8.90;69.20;;;4.27;100.00;94451.84;4960370;28;19971;-56
2023/11/11 02:50:57;;;;;;;;;;;8.80;69.30;;;4.25;100.00;94453.94;4963225;28;20466;-52
2023/11/11 02:53:23;;;;;;;;;;;8.80;69.30;;;4.26;100.00;94452.91;4960015;28;19910;-49
2023/11/11 02:55:51;;;;;;;;;;;8.80;69.40;;;4.27;100.00;94458.97;4961482;28;19910;-50
2023/11/11 02:58:17;;;;;;;;;;;8.70;69.30;;;4.24;100.00;94459.47;4968633;28;19910;-48
2023/11/11 03:00:43;;;;;;;;;;;8.70;69.30;;;4.23;100.00;94452.59;4958621;28;19937;-49
2023/11/11 03:03:09;;;;;;;;;;;8.70;69.40;;;4.22;100.00;94457.06;4961349;28;19909;-51
2023/11/11 03:05:36;;;;;;;;;;;8.70;69.40;;;4.16;100.00;94458.88;4959761;28;19916;-53
2023/11/11 03:08:02;;;;;;;;;;;8.70;69.50;;;4.17;100.00;94463.13;4964787;28;20002;-48
2023/11/11 03:10:28;;;;;;;;;;;8.70;70.20;;;4.21;100.00;94463.41;4959388;28;20344;-48
2023/11/11 03:12:54;;;;;;;;;;;8.70;69.40;;;4.18;100.00;94451.50;4960689;28;19914;-48
2023/11/11 03:15:20;;;;;;;;;;;8.70;69.30;;;4.18;100.00;94461.28;4959717;28;20368;-54
2023/11/11 03:17:46;;;;;;;;;;;8.70;69.30;;;4.24;100.00;94465.53;4965620;28;19913;-52
2023/11/11 03:20:12;;;;;;;;;;;8.70;69.30;;;4.22;100.00;94464.97;4962051;28;19965;-50
2023/11/11 03:22:38;;;;;;;;;;;8.70;69.30;;;4.19;100.00;94470.75;4968040;28;19917;-58
2023/11/11 03:25:06;;;;;;;;;;;8.70;69.30;;;4.23;100.00;94477.13;4966904;28;19956;-51
2023/11/11 03:27:32;;;;;;;;;;;8.70;69.30;;;4.25;100.00;94475.03;4966411;28;19917;-52
2023/11/11 03:30:00;;;;;;;;;;;8.70;69.20;;;4.25;100.00;94487.41;4965364;28;19913;-52
2023/11/11 03:32:27;;;;;;;;;;;8.70;69.20;;;4.27;100.00;94477.44;4963747;28;19925;-57
2023/11/11 03:34:52;;;;;;;;;;;8.70;69.90;;;4.26;100.00;94481.91;4971263;28;19913;-52
2023/11/11 03:37:18;;;;;;;;;;;8.80;69.20;;;4.25;100.00;94484.78;4964951;28;20284;-48
2023/11/11 03:39:44;;;;;;;;;;;8.80;69.10;;;4.22;100.00;94480.81;4962911;28;19914;-49
2023/11/11 03:42:10;;;;;;;;;;;8.80;69.10;;;4.24;100.00;94491.91;4965290;28;20117;-50
2023/11/11 03:44:36;;;;;;;;;;;8.80;69.00;;;4.27;100.00;94487.97;4963712;28;20028;-48
2023/11/11 03:47:02;;;;;;;;;;;8.80;69.10;;;4.30;100.00;94493.53;4964935;28;19913;-48
2023/11/11 03:49:28;;;;;;;;;;;8.80;69.00;;;4.32;100.00;94486.16;4966715;28;19914;-48
2023/11/11 03:51:54;;;;;;;;;;;8.80;68.90;;;4.29;100.00;94491.13;4966157;28;19913;-48
2023/11/11 03:54:21;;;;;;;;;;;8.90;68.90;;;4.30;100.00;94496.16;4958806;28;20257;-48
2023/11/11 03:56:50;;;;;;;;;;;8.90;68.90;;;4.26;100.00;94496.91;4965370;28;19910;-48
2023/11/11 03:59:16;;;;;;;;;;;8.90;68.90;;;4.29;100.00;94497.19;4970082;28;20300;-48
2023/11/11 04:01:41;;;;;;;;;;;8.90;68.80;;;4.30;100.00;94501.44;4967806;28;20347;-53
2023/11/11 04:04:08;;;;;;;;;;;8.90;68.90;;;4.33;100.00;94508.06;4973837;28;19948;-57
2023/11/11 04:06:35;;;;;;;;;;;8.90;68.90;;;4.30;100.00;94509.34;4973274;28;19910;-56
2023/11/11 04:09:02;;;;;;;;;;;8.90;68.90;;;4.32;100.00;94511.72;4963460;28;20261;-51
2023/11/11 04:11:28;;;;;;;;;;;8.90;68.90;;;4.35;100.00;94516.50;4963328;28;20020;-49
2023/11/11 04:13:55;;;;;;;;;;;9.00;69.00;;;4.38;100.00;94516.78;4969204;28;20009;-52
2023/11/11 04:16:21;;;;;;;;;;;9.00;69.00;;;4.38;100.00;94522.06;4962731;28;19914;-48
2023/11/11 04:18:47;;;;;;;;;;;9.00;69.00;;;4.39;100.00;94526.31;4967744;28;19909;-48
2023/11/11 04:21:13;;;;;;;;;;;9.00;69.00;;;4.38;100.00;94527.31;4963211;28;19910;-54
2023/11/11 04:23:41;;;;;;;;;;;9.00;69.00;;;4.43;100.00;94523.97;4950821;28;20304;-48
2023/11/11 04:26:07;;;;;;;;;;;9.10;69.10;;;4.45;100.00;94532.41;4971171;28;20257;-54
2023/11/11 04:28:33;;;;;;;;;;;9.00;69.00;;;4.47;100.00;94524.25;4967813;28;19916;-48
2023/11/11 04:30:59;;;;;;;;;;;9.00;69.00;;;4.48;100.00;94526.66;4964708;28;20300;-49
2023/11/11 04:33:28;;;;;;;;;;;9.10;69.10;;;4.52;100.00;94533.00;4955503;28;19962;-49
2023/11/11 04:35:54;;;;;;;;;;;9.10;69.00;;;4.54;100.00;94533.53;4973474;28;19999;-48
2023/11/11 04:38:23;;;;;;;;;;;9.10;69.00;;;4.57;100.00;94534.88;4969458;28;19910;-48
2023/11/11 04:40:53;;;;;;;;;;;9.20;69.00;;;4.55;100.00;94539.63;4961357;28;19910;-48
2023/11/11 04:43:19;;;;;;;;;;;9.20;69.70;;;4.50;100.00;94539.56;4967363;28;19914;-48
2023/11/11 04:45:45;;;;;;;;;;;9.20;68.90;;;4.54;100.00;94554.63;4961994;28;19914;-52
2023/11/11 04:48:10;;;;;;;;;;;9.20;68.80;;;4.57;100.00;94562.03;4963437;28;19910;-52
2023/11/11 04:50:36;;;;;;;;;;;9.20;68.70;;;4.59;100.00;94557.31;4966945;28;20020;-49
2023/11/11 04:53:02;;;;;;;;;;;9.20;68.60;;;4.60;100.00;94558.88;4957407;28;19918;-48
2023/11/11 04:55:28;;;;;;;;;;;9.20;68.50;;;4.60;100.00;94561.53;4965657;28;19917;-50
2023/11/11 04:57:54;;;;;;;;;;;9.30;68.50;;;4.62;100.00;94563.94;4965406;28;20288;-48
2023/11/11 05:00:19;;;;;;;;;;;9.20;68.40;;;4.57;100.00;94563.88;4964996;28;19910;-50
2023/11/11 05:02:45;;;;;;;;;;;9.30;68.50;;;4.58;100.00;94570.75;4965261;28;19917;-48
2023/11/11 05:05:11;;;;;;;;;;;9.30;68.50;;;4.53;100.00;94573.34;4962630;28;20036;-49
2023/11/11 05:07:40;;;;;;;;;;;9.30;68.40;;;4.56;100.00;94581.56;4966526;28;19930;-50
2023/11/11 05:10:12;;;;;;;;;;;9.30;68.40;;;4.57;100.00;94580.50;4965166;28;19913;-48
2023/11/11 05:12:38;;;;;;;;;;;9.30;68.30;;;4.56;100.00;94578.13;4960761;28;19910;-54
2023/11/11 05:15:14;;;;;;;;;;;9.30;68.30;;;4.59;100.00;94596.09;4970517;28;19917;-48
2023/11/11 05:17:44;;;;;;;;;;;9.30;68.20;;;4.56;100.00;94589.47;4972755;28;19997;-48
2023/11/11 05:20:14;;;;;;;;;;;9.30;68.20;;;4.56;100.00;94586.81;4964303;28;19910;-48
2023/11/11 05:22:43;;;;;;;;;;;9.30;68.10;;;4.51;100.00;94596.53;4966935;28;19917;-47
2023/11/11 05:25:12;;;;;;;;;;;9.30;68.10;;;4.51;100.00;94593.88;4971649;28;19956;-48
2023/11/11 05:27:39;;;;;;;;;;;9.30;68.10;;;4.49;100.00;94602.06;4967645;28;20288;-50
2023/11/11 05:30:06;;;;;;;;;;;9.30;68.10;;;4.50;100.00;94606.28;4972561;28;20506;-46
2023/11/11 05:32:32;;;;;;;;;;;9.30;68.10;;;4.50;100.00;94610.78;4963271;28;19962;-48
2023/11/11 05:34:58;;;;;;;;;;;9.30;68.10;;;4.48;100.00;94615.50;4964905;28;19914;-46
2023/11/11 05:37:25;;;;;;;;;;;9.30;68.10;;;4.49;100.00;94617.88;4968620;28;19916;-48
2023/11/11 05:39:51;;;;;;;;;;;9.30;68.10;;;4.49;100.00;94623.16;4972512;28;19917;-46
2023/11/11 05:42:16;;;;;;;;;;;9.30;68.20;;;4.48;100.00;94623.41;4961887;28;19913;-47
2023/11/11 05:44:42;;;;;;;;;;;9.30;68.10;;;4.42;100.00;94622.56;4967906;28;19917;-48
2023/11/11 05:47:09;;;;;;;;;;;9.30;68.10;;;4.44;100.00;94625.75;4972533;28;19952;-47
2023/11/11 05:49:35;;;;;;;;;;;9.20;68.00;;;4.43;100.00;94632.06;4968765;28;19910;-47
2023/11/11 05:52:02;;;;;;;;;;;9.20;68.00;;;4.43;100.00;94639.19;4971919;28;19913;-46
2023/11/11 05:54:28;;;;;;;;;;;9.20;68.10;;;4.43;100.00;94639.19;4971606;28;19953;-48
2023/11/11 05:56:54;;;;;;;;;;;9.20;68.10;;;4.33;100.00;94645.94;4968277;28;19977;-52
2023/11/11 05:59:20;;;;;;;;;;;9.20;68.10;;;4.28;100.00;94643.25;4972130;28;19917;-49
2023/11/11 06:01:47;;;;;;;;;;;9.20;68.00;;;4.29;100.00;94636.94;4968125;28;19909;-49
2023/11/11 06:04:14;;;;;;;;;;;9.10;68.00;;;4.24;100.00;94646.63;4942128;28;19997;-55
2023/11/11 06:06:41;;;;;;;;;;;9.10;68.00;;;4.22;100.00;94651.34;4944958;28;19910;-52
2023/11/11 06:09:14;;;;;;;;;;;9.10;68.00;;;4.22;100.00;94652.16;4949419;28;19968;-57
2023/11/11 06:11:47;;;;;;;;;;;9.10;67.90;;;4.14;100.00;94656.03;4927492;28;20288;-49
2023/11/11 06:14:18;;;;;;;;;;;9.00;67.80;;;4.13;100.00;94643.09;4945631;28;19949;-49
2023/11/11 06:16:45;;;;;;;;;;;9.00;67.80;;;4.10;100.00;94651.47;4943242;28;19933;-51
2023/11/11 06:19:12;;;;;;;;;;;9.00;67.70;;;4.03;100.00;94651.66;4943290;28;20404;-51
2023/11/11 06:21:38;;;;;;;;;;;9.00;67.70;;;3.98;100.00;94656.91;4949075;28;20380;-52
2023/11/11 06:24:05;;;;;;;;;;;8.90;67.60;;;3.97;100.00;94657.13;4945576;28;19921;-49
2023/11/11 06:26:31;;;;;;;;;;;8.90;67.50;;;3.90;100.00;94663.38;4944584;28;19919;-47
2023/11/11 06:28:57;;;;;;;;;;;8.80;67.40;;;3.82;100.00;94666.44;4944791;28;19919;-55
2023/11/11 06:31:24;;;;;;;;;;;8.80;67.30;;;3.78;100.00;94669.81;4940962;28;19921;-50
2023/11/11 06:33:50;;;;;;;;;;;8.70;67.30;;;3.68;100.00;94668.63;4946228;28;19925;-46
2023/11/11 06:36:17;;;;;;;;;;;8.60;67.20;;;3.64;100.00;94664.91;4945068;28;19968;-54
2023/11/11 06:38:43;;;;;;;;;;;8.60;67.40;;;3.60;100.00;94670.88;4944530;28;19932;-47
2023/11/11 06:41:09;;;;;;;;;;;8.50;67.20;;;3.58;100.00;94675.59;4941706;28;20871;-51
2023/11/11 06:43:35;;;;;;;;;;;8.50;67.30;;;3.55;100.00;94665.56;4943618;28;19914;-56
2023/11/11 06:46:05;;;;;;;;;;;8.50;67.40;;;3.48;100.00;94669.16;4943844;28;28105;-52
2023/11/11 06:48:32;;;;;;;;;;;8.40;67.40;;;3.52;100.00;94666.84;4946956;28;20308;-52
2023/11/11 06:50:58;;;;;;;;;;;8.40;67.40;;;3.51;100.00;94672.31;4945867;28;20033;-54
2023/11/11 06:53:24;;;;;;;;;;;8.40;67.50;;;3.53;100.00;94670.25;4941094;28;20028;-47
2023/11/11 06:55:50;;;;;;;;;;;8.40;67.50;;;3.51;100.00;94672.31;4943398;28;20297;-49
2023/11/11 06:58:16;;;;;;;;;;;8.40;67.50;;;3.57;100.00;94679.25;4947351;28;19918;-51
2023/11/11 07:00:41;;;;;;;;;;;8.40;67.60;;;3.58;100.00;94676.41;4948856;28;20909;-53
2023/11/11 07:03:08;;;;;;;;;;;8.50;68.40;;;3.64;100.00;94677.28;4947333;28;19914;-54
2023/11/11 07:05:37;;;;;;;;;;;8.50;67.70;;;3.68;100.00;94687.06;4948484;28;19973;-53
2023/11/11 07:08:05;;;;;;;;;;;8.60;67.70;;;3.70;100.00;94692.91;4947543;28;19928;-56
2023/11/11 07:10:33;;;;;;;;;;;8.60;67.60;;;3.72;100.00;94690.81;4948097;28;23182;-48
2023/11/11 07:13:00;;;;;;;;;;;8.60;67.50;;;3.74;100.00;94697.69;4946002;28;19917;-51
2023/11/11 07:15:27;;;;;;;;;;;8.70;67.50;;;3.73;100.00;94704.78;4948762;28;19918;-53
2023/11/11 07:17:54;;;;;;;;;;;8.70;67.30;;;3.79;100.00;94697.72;4947512;28;19969;-53
2023/11/11 07:20:21;;;;;;;;;;;8.70;67.20;;;3.76;100.00;94706.13;4945801;28;19937;-47
2023/11/11 07:22:54;;;;;;;;;;;8.70;67.10;;;3.80;100.00;94704.63;4947552;28;19914;-52
2023/11/11 07:25:23;;;;;;;;;;;8.80;67.10;;;3.86;100.00;94706.28;4946701;28;19921;-50
2023/11/11 07:27:50;;;;;;;;;;;8.80;67.00;;;3.85;100.00;94708.09;4947943;28;20394;-55
2023/11/11 07:30:16;;;;;;;;;;;8.80;66.90;;;3.82;100.00;94719.13;4929278;28;19980;-56
2023/11/11 07:32:44;;;;;;;;;;;8.80;66.80;;;3.82;100.00;94729.66;4947928;28;20369;-50
2023/11/11 07:35:11;;;;;;;;;;;8.80;66.70;;;3.83;100.00;94728.63;4962736;28;19913;-50
2023/11/11 07:37:42;;;;;;;;;;;8.80;66.60;;;3.83;100.00;94733.91;4963383;28;19909;-53
2023/11/11 07:40:09;;;;;;;;;;;8.80;66.60;;;3.82;100.00;94745.47;4960031;28;20032;-52
2023/11/11 07:42:35;;;;;;;;;;;8.80;66.50;;;3.86;100.00;94743.97;4958162;28;19913;-56
2023/11/11 07:45:04;;;;;;;;;;;8.80;66.50;;;3.85;100.00;94746.81;4948115;28;19917;-52
2023/11/11 07:47:31;;;;;;;;;;;8.80;66.40;;;3.85;100.00;94752.09;4965288;28;20383;-53
2023/11/11 07:49:58;;;;;;;;;;;8.80;66.40;;;3.88;100.00;94754.25;4960672;28;19976;-58
2023/11/11 07:52:25;;;;;;;;;;;8.80;66.30;;;3.96;100.00;94755.69;4960139;28;19921;-48
2023/11/11 07:54:50;;;;;;;;;;;8.90;66.30;;;4.00;100.00;94760.22;4958967;28;19914;-50
2023/11/11 07:57:17;;;;;;;;;;;9.00;66.40;;;4.05;100.00;94757.66;4962262;28;19964;-54
2023/11/11 07:59:43;;;;;;;;;;;9.10;66.40;;;4.11;100.00;94772.50;4963177;28;19941;-49
2023/11/11 08:02:14;;;;;;;;;;;9.10;66.40;;;4.24;100.00;94768.69;4958786;28;20412;-53
2023/11/11 08:04:41;;;;;;;;;;;9.20;66.50;;;4.30;100.00;94772.22;4963279;28;20356;-49
2023/11/11 08:07:11;;;;;;;;;;;9.40;66.50;;;4.40;100.00;94770.47;4963048;28;20809;-54
2023/11/11 08:09:37;;;;;;;;;;;9.50;66.50;;;4.47;100.00;94777.41;4963049;28;20542;-50
2023/11/11 08:12:04;;;;;;;;;;;9.60;66.30;;;4.49;100.00;94783.25;4963778;28;19914;-52
2023/11/11 08:14:31;;;;;;;;;;;9.70;66.10;;;4.51;100.00;94773.22;4960945;28;20447;-52
2023/11/11 08:16:58;;;;;;;;;;;9.70;66.00;;;4.60;100.00;94774.41;4943807;28;20551;-51
2023/11/11 08:19:24;;;;;;;;;;;9.80;65.80;;;4.61;100.00;94776.81;4964669;28;19910;-50
2023/11/11 08:21:49;;;;;;;;;;;9.80;65.70;;;4.63;100.00;94777.34;4962996;28;19918;-54
2023/11/11 08:24:15;;;;;;;;;;;9.90;65.60;;;4.73;100.00;94779.31;4964121;28;20288;-54
2023/11/11 08:26:41;;;;;;;;;;;10.10;65.50;;;4.87;99.27;94783.16;4960030;28;19909;-52
2023/11/11 08:29:07;;;;;;;;;;;10.20;65.70;;;4.93;96.81;94784.00;4962399;28;19914;-54
2023/11/11 08:31:33;;;;;;;;;;;10.40;65.00;;;5.00;96.96;94789.88;4963802;28;19921;-48
2023/11/11 08:33:59;;;;;;;;;;;10.40;64.80;;;4.97;94.77;94790.38;4960106;28;19960;-54
2023/11/11 08:36:25;;;;;;;;;;;10.50;64.60;;;5.02;93.23;94792.28;4963701;28;19956;-52
2023/11/11 08:38:51;;;;;;;;;;;10.50;64.30;;;5.09;92.68;94790.25;4961741;28;19987;-47
2023/11/11 08:41:17;;;;;;;;;;;10.60;64.10;;;5.21;91.15;94787.47;4962795;28;20394;-52
2023/11/11 08:43:44;;;;;;;;;;;10.80;63.90;;;5.34;89.54;94790.47;4961811;28;19909;-47
2023/11/11 08:46:10;;;;;;;;;;;11.00;63.50;;;5.64;88.00;94786.50;4962924;28;20285;-48
2023/11/11 08:48:40;;;;;;;;;;;11.30;63.00;;;5.95;85.90;94784.88;4960865;28;19913;-53
2023/11/11 08:51:13;;;;;;;;;;;11.80;62.60;;;6.20;83.76;94776.31;4960411;28;19918;-51
2023/11/11 08:53:39;;;;;;;;;;;12.20;61.80;;;6.57;83.24;94795.81;4964508;28;19910;-51
2023/11/11 08:56:05;;;;;;;;;;;12.60;61.30;;;6.78;81.32;94788.75;4963993;28;19914;-47
2023/11/11 08:58:31;;;;;;;;;;;13.00;60.80;;;6.97;81.41;94792.53;4962362;28;19910;-48
2023/11/11 09:00:58;;;;;;;;;;;13.30;60.00;;;7.23;78.91;94790.72;4944744;28;19960;-55
2023/11/11 09:03:23;;;;;;;;;;;13.60;59.80;;;7.47;76.99;94787.59;4962452;28;19914;-55
2023/11/11 09:05:50;;;;;;;;;;;13.90;59.50;;;7.70;75.94;94783.59;4959537;28;19917;-54
2023/11/11 09:08:15;;;;;;;;;;;14.30;59.20;;;7.89;75.36;94795.25;4964553;28;19945;-49
2023/11/11 09:10:44;;;;;;;;;;;14.60;58.70;;;7.89;72.35;94782.78;4963825;28;20052;-51
2023/11/11 09:13:10;;;;;;;;;;;14.90;58.30;;;8.24;72.68;94775.06;4943990;28;19980;-55
2023/11/11 09:15:37;;;;;;;;;;;15.40;58.10;;;8.71;72.22;94787.97;4962938;28;19913;-53
2023/11/11 09:18:05;;;;;;;;;;;15.90;58.30;;;8.96;69.60;94783.59;4962650;28;19910;-55
2023/11/11 09:20:32;;;;;;;;;;;16.10;57.50;;;8.67;67.70;94789.56;4959135;28;19914;-56
2023/11/11 09:22:58;;;;;;;;;;;16.20;57.00;;;8.63;68.61;94795.69;4960955;28;20794;-53
2023/11/11 09:25:24;;;;;;;;;;;16.10;56.30;;;8.56;68.23;94785.38;4961878;28;19960;-55
2023/11/11 09:27:50;;;;;;;;;;;16.00;55.70;;;8.62;68.54;94783.47;4961671;28;20650;-53
2023/11/11 09:30:18;;;;;;;;;;;15.80;55.80;;;8.41;67.66;94793.38;4962966;28;19918;-55
2023/11/11 09:32:44;;;;;;;;;;;15.70;55.60;;;8.65;67.99;94793.53;4962813;28;20387;-55
2023/11/11 09:35:15;;;;;;;;;;;15.70;55.70;;;8.52;68.31;94794.91;4962915;28;20045;-53
2023/11/11 09:37:41;;;;;;;;;;;15.90;54.80;;;8.57;66.86;94790.38;4960921;28;19921;-56
2023/11/11 09:40:11;;;;;;;;;;;16.00;54.10;;;8.63;64.80;94804.44;4963246;28;19924;-55
2023/11/11 09:42:38;;;;;;;;;;;15.90;54.00;;;8.46;64.63;94790.69;4945812;28;19914;-55
2023/11/11 09:45:08;;;;;;;;;;;15.90;53.40;;;8.39;64.26;94795.50;4964153;28;19909;-58
2023/11/11 09:47:39;;;;;;;;;;;15.80;53.20;;;8.30;63.39;94801.34;4961881;28;19917;-51
2023/11/11 09:50:06;;;;;;;;;;;15.90;53.10;;;8.32;63.91;94791.22;4912025;28;58684;-52
2023/11/11 09:52:35;;;;;;;;;;;15.70;52.90;;;8.20;64.97;94795.22;4961272;28;20017;-49
2023/11/11 09:55:02;;;;;;;;;;;15.50;52.80;;;8.30;65.42;94792.56;4964184;28;19918;-56
2023/11/11 09:57:29;;;;;;;;;;;15.40;52.90;;;8.63;65.57;94782.41;4945669;28;20004;-54
2023/11/11 09:59:57;;;;;;;;;;;15.80;52.90;;;8.88;61.97;94786.84;4945419;28;19929;-49
2023/11/11 10:02:23;;;;;;;;;;;16.30;52.30;;;8.89;60.52;94793.72;4961016;28;19910;-48
2023/11/11 10:04:52;;;;;;;;;;;16.50;52.00;;;9.02;60.69;94787.81;4945525;28;20373;-48
2023/11/11 10:07:21;;;;;;;;;;;16.60;51.80;;;8.99;60.33;94791.81;4944377;28;19924;-55
2023/11/11 10:09:51;;;;;;;;;;;16.70;51.40;;;9.17;60.00;94794.91;4961465;28;19910;-50
2023/11/11 10:12:17;;;;;;;;;;;16.60;51.40;;;9.07;60.22;94795.75;4958919;28;19921;-53
2023/11/11 10:14:43;;;;;;;;;;;16.40;51.60;;;9.00;60.58;94792.63;4959735;28;19910;-48
2023/11/11 10:17:13;;;;;;;;;;;16.10;51.70;;;8.76;60.78;94801.19;4954241;28;19910;-50
2023/11/11 10:19:43;;;;;;;;;;;15.90;51.70;;;8.48;60.87;94792.00;4960651;28;19938;-55
2023/11/11 10:22:09;;;;;;;;;;;15.60;51.70;;;8.36;62.44;94799.44;4961306;28;19909;-49
2023/11/11 10:24:36;;;;;;;;;;;15.40;51.60;;;8.27;62.51;94804.53;4960192;28;20390;-50
2023/11/11 10:27:04;;;;;;;;;;;15.30;51.60;;;8.03;62.81;94806.16;4961461;28;20376;-52
2023/11/11 10:29:38;;;;;;;;;;;15.10;51.10;;;8.06;63.97;94801.09;4961582;28;19914;-53
2023/11/11 10:32:08;;;;;;;;;;;15.00;51.00;;;8.24;64.07;94801.59;4965977;28;20556;-58
2023/11/11 10:34:39;;;;;;;;;;;14.90;51.20;;;8.42;64.56;94798.41;4964416;28;20388;-49
2023/11/11 10:37:05;;;;;;;;;;;15.00;51.60;;;8.28;62.35;94794.69;4964204;28;19914;-46
2023/11/11 10:39:35;;;;;;;;;;;15.00;51.40;;;8.45;63.23;94797.06;4965705;28;19924;-49
2023/11/11 10:42:02;;;;;;;;;;;15.00;51.50;;;8.45;63.08;94794.41;4965202;28;19913;-49
2023/11/11 10:44:29;;;;;;;;;;;15.20;51.50;;;8.41;61.67;94790.72;4963536;28;19921;-53
2023/11/11 10:46:58;;;;;;;;;;;15.30;51.40;;;8.37;63.67;94794.91;4965193;28;20368;-52
2023/11/11 10:49:27;;;;;;;;;;;15.30;51.20;;;8.26;62.42;94791.50;4967005;28;19925;-52
2023/11/11 10:51:58;;;;;;;;;;;15.20;51.00;;;8.15;62.96;94798.69;4966104;28;20058;-55
2023/11/11 10:54:25;;;;;;;;;;;14.90;50.70;;;8.15;64.05;94803.19;4967887;28;19917;-53
2023/11/11 10:56:52;;;;;;;;;;;14.70;50.90;;;7.84;63.76;94793.41;4964505;28;19964;-49
2023/11/11 10:59:21;;;;;;;;;;;14.50;50.60;;;7.98;65.12;94785.72;4964522;28;19945;-48
2023/11/11 11:01:47;;;;;;;;;;;14.30;50.90;;;8.15;65.62;94781.97;4948698;28;20365;-50
2023/11/11 11:04:13;;;;;;;;;;;14.20;51.40;;;8.09;65.90;94782.00;4964641;28;19956;-48
2023/11/11 11:07:11;;;;;;;;;;;14.10;51.70;;;7.87;65.93;94784.94;4966125;28;20357;-51
2023/11/11 11:09:54;;;;;;;;;;;14.00;51.80;;;7.82;66.95;94782.28;4959966;28;20481;-51
2023/11/11 11:12:25;;;;;;;;;;;14.00;51.90;;;7.80;66.49;94781.78;4948283;28;19945;-48
2023/11/11 11:14:52;;;;;;;;;;;13.90;52.00;;;7.70;66.89;94784.41;4965449;28;19909;-50
2023/11/11 11:17:18;;;;;;;;;;;13.80;51.90;;;7.47;67.89;94785.72;4959772;28;19917;-48
2023/11/11 11:20:09;;;;;;;;;;;13.80;51.60;;;7.46;68.56;94781.50;4963005;28;20695;-48
2023/11/11 11:22:39;;;;;;;;;;;13.70;51.60;;;7.59;67.39;94778.31;4949598;28;19917;-56
2023/11/11 11:25:33;;;;;;;;;;;13.70;51.70;;;7.58;65.45;94781.22;4961707;28;19909;-47